Página principal
METAR-TAF:

METAR-TAF

Aeroportos :

New Stuyahok, Alasca, Estados Unidos

latitude: 59-27-06N, longitude: 157-22-23W, altura: 111 m

Observação actual do tempo

O boletim foi feito há 34 minutos, às 17:56 UTC
Vento 8 kt de es-nordeste
Temperatura 11°C
Humidade 76%
Pressão 1016 hPa
Visibilidade: 16.1 km
Poucas nuvensa uma altura de 10000 ft

METAR: PANW 201756Z AUTO 07008KT 10SM FEW100 11/07 A2999 RMK AO2 SLP159 60000 T01060067 10106 20067 58006

Hora: 10:30 (18:30 UTC)


TAF: em falta

Observações e previsões do tempo de mais de 4000 aeroportos (mensagens METAR e TAF).

As estações disponíveis são os pontos amarelos e vermelhos sobre o mapa.

Mova o rato sobre o mapa para ver o nome da estação.

Depois clique no ponto para visualizar as observações e previsões meteorológicas.

Para alterar o mapa : clique nos botões verdes com uma cruz preta para aumentar o zoom; no botão verde com uma pitada de zoom; ou nas setas verdes para mapas adjacentes.


METAR-TAF: